Time;durP1;ratioP1;P1;durP2;ratioP2;P2;SDS_P1;SDS_P2;PMS_P1;PMS_P2;Temp;Humidity;BMP_temperature;BMP_pressure;BME280_temperature;BME280_humidity;BME280_pressure;Samples;Min_cycle;Max_cycle;Signal;HPM_P1;HPM_P2
2022/02/01 00:00:56;;;;;;;474.33;454.13;;;3.10;99.90;;;;;;6196654;23;20420;-84
2022/02/01 00:03:36;;;;;;;508.00;485.23;;;3.10;99.90;;;;;;6196015;23;20404;-84
2022/02/01 00:06:17;;;;;;;584.80;556.30;;;3.00;99.90;;;;;;6195418;23;20397;-84
2022/02/01 00:08:56;;;;;;;539.90;515.33;;;3.10;99.90;;;;;;6196275;23;20431;-83
2022/02/01 00:11:37;;;;;;;595.27;564.93;;;3.10;99.90;;;;;;6195541;23;20765;-84
2022/02/01 00:14:25;;;;;;;585.40;557.17;;;3.10;99.90;;;;;;6194806;23;20468;-83
2022/02/01 00:17:44;;;;;;;600.97;570.43;;;3.00;99.90;;;;;;6195926;23;20484;-84
2022/02/01 00:33:08;;;;;;;630.83;597.87;;;2.90;99.90;;;;;;6196034;23;20433;-84
2022/02/01 00:35:47;;;;;;;616.47;586.20;;;2.90;99.90;;;;;;6194012;23;20419;-83
2022/02/01 00:38:37;;;;;;;652.40;617.90;;;2.80;99.90;;;;;;6077607;23;20421;-82
2022/02/01 00:41:13;;;;;;;641.87;608.77;;;2.90;99.90;;;;;;6194814;23;20456;-84
2022/02/01 00:46:46;;;;;;;678.37;640.30;;;2.80;99.90;;;;;;6150777;23;20417;-84
2022/02/01 00:53:31;;;;;;;;;;;;;;;;;;;;;
2022/02/01 00:59:50;;;;;;;;;;;;;;;;;;;;;
2022/02/01 01:06:25;;;;;;;694.73;653.20;;;2.80;99.90;;;;;;6204350;23;20448;-83
2022/02/01 01:11:52;;;;;;;665.93;627.20;;;2.70;99.90;;;;;;6190974;23;20425;-83
2022/02/01 01:15:07;;;;;;;644.67;608.03;;;2.90;99.90;;;;;;6206324;23;20491;-83
2022/02/01 01:18:03;;;;;;;623.77;590.50;;;3.00;99.90;;;;;;6194672;23;20832;-83
2022/02/01 01:46:14;;;;;;;473.70;451.53;;;3.40;99.90;;;;;;6194675;23;20473;-84
2022/02/01 01:54:36;;;;;;;442.53;422.30;;;3.50;99.90;;;;;;6194327;23;20416;-84
2022/02/01 01:57:06;;;;;;;441.47;422.00;;;3.50;99.90;;;;;;6195789;23;20732;-84
2022/02/01 02:02:28;;;;;;;427.77;407.47;;;3.50;99.90;;;;;;6205235;23;20431;-84
2022/02/01 02:05:00;;;;;;;413.23;395.33;;;3.60;99.90;;;;;;6195130;23;20420;-84
2022/02/01 02:07:47;;;;;;;;;;;;;;;;;;;;;
2022/02/01 02:10:38;;;;;;;408.10;391.87;;;3.50;99.90;;;;;;6206829;23;20444;-84
2022/02/01 02:16:46;;;;;;;402.93;387.43;;;3.60;99.90;;;;;;6114365;23;20467;-83
2022/02/01 02:19:18;;;;;;;401.30;385.50;;;3.60;99.90;;;;;;6062367;23;20415;-83
2022/02/01 02:24:57;;;;;;;402.30;385.77;;;3.50;99.90;;;;;;6189462;23;20408;-84
2022/02/01 02:27:33;;;;;;;396.10;381.00;;;3.50;99.90;;;;;;6195979;23;20444;-84
2022/02/01 02:30:10;;;;;;;395.63;380.13;;;3.50;99.90;;;;;;6195875;23;21037;-84
2022/02/01 02:32:45;;;;;;;404.33;388.70;;;3.50;99.90;;;;;;6194992;23;20393;-84
2022/02/01 02:35:43;;;;;;;399.10;383.63;;;3.40;99.90;;;;;;6195641;23;20420;-84
2022/02/01 02:38:41;;;;;;;426.43;410.20;;;3.50;99.90;;;;;;6193303;23;20452;-83
2022/02/01 02:41:35;;;;;;;431.30;414.53;;;3.40;99.90;;;;;;6195025;23;20433;-84
2022/02/01 02:47:03;;;;;;;419.30;403.27;;;3.40;99.90;;;;;;6149900;23;20405;-84
2022/02/01 02:49:46;;;;;;;415.37;398.90;;;3.50;99.90;;;;;;6195076;23;20452;-84
2022/02/01 02:58:47;;;;;;;446.60;428.43;;;3.40;99.90;;;;;;6168470;23;20417;-83
2022/02/01 03:01:18;;;;;;;462.77;443.57;;;3.40;99.90;;;;;;6197204;23;20467;-84
2022/02/01 03:07:06;;;;;;;444.17;426.03;;;3.40;99.90;;;;;;6195389;23;20416;-84
2022/02/01 03:16:50;;;;;;;444.83;424.90;;;3.40;99.90;;;;;;6177774;23;20441;-84
2022/02/01 03:20:04;;;;;;;430.20;413.07;;;3.40;99.90;;;;;;6017589;23;21133;-84
2022/02/01 03:23:06;;;;;;;414.30;398.07;;;3.40;99.90;;;;;;6056758;23;20423;-84
2022/02/01 03:32:40;;;;;;;395.87;380.30;;;3.60;99.90;;;;;;6203176;23;20420;-84
2022/02/01 03:41:36;;;;;;;398.37;383.03;;;3.60;99.90;;;;;;6144158;23;20883;-84
2022/02/01 03:47:32;;;;;;;;;;;;;;;;;;;;;
2022/02/01 03:50:20;;;;;;;373.70;359.37;;;3.60;99.90;;;;;;6196596;23;20471;-84
2022/02/01 03:53:09;;;;;;;359.57;345.50;;;3.60;99.90;;;;;;6197059;23;20404;-84
2022/02/01 03:59:04;;;;;;;339.03;326.10;;;3.50;99.90;;;;;;6174643;23;20408;-84
2022/02/01 04:04:53;;;;;;;335.90;323.07;;;3.60;99.90;;;;;;6175295;23;20425;-84
2022/02/01 04:14:14;;;;;;;348.13;335.53;;;3.60;99.90;;;;;;6190854;23;20405;-84
2022/02/01 04:17:14;;;;;;;337.80;324.90;;;3.70;99.90;;;;;;6157933;23;20427;-84
2022/02/01 04:20:25;;;;;;;342.67;329.60;;;3.60;99.90;;;;;;6190467;23;20460;-84
2022/02/01 04:26:02;;;;;;;308.57;296.57;;;3.70;99.90;;;;;;6202762;23;20413;-83
2022/02/01 04:29:15;;;;;;;309.13;297.50;;;3.70;99.90;;;;;;6203165;23;20440;-84
2022/02/01 04:31:54;;;;;;;329.13;316.13;;;3.70;99.90;;;;;;6161058;23;20441;-84
2022/02/01 04:40:36;;;;;;;283.83;273.27;;;3.70;99.90;;;;;;6132684;23;20449;-84
2022/02/01 04:43:33;;;;;;;292.37;281.50;;;3.80;99.90;;;;;;6195570;23;20424;-84
2022/02/01 04:49:53;;;;;;;;;;;;;;;;;;;;;
2022/02/01 04:53:00;;;;;;;378.77;364.30;;;3.70;99.90;;;;;;6017078;23;20418;-84
2022/02/01 04:56:08;;;;;;;372.13;354.67;;;3.80;99.90;;;;;;6139201;23;20417;-84
2022/02/01 04:58:45;;;;;;;448.67;429.63;;;3.60;99.90;;;;;;6204635;23;20403;-83
2022/02/01 05:01:37;;;;;;;494.23;471.53;;;3.50;99.90;;;;;;6204418;23;20487;-83
2022/02/01 05:04:31;;;;;;;455.60;435.53;;;3.50;99.90;;;;;;6203182;23;20408;-83
2022/02/01 05:07:19;;;;;;;430.63;411.33;;;3.50;99.90;;;;;;6203799;23;20903;-83
2022/02/01 05:10:24;;;;;;;439.83;420.67;;;3.60;99.90;;;;;;6118517;23;20787;-83
2022/02/01 05:13:49;;;;;;;424.87;405.77;;;3.60;99.90;;;;;;6192793;23;20413;-83
2022/02/01 05:16:55;;;;;;;427.67;407.27;;;3.70;99.90;;;;;;6191670;23;20409;-83
2022/02/01 05:19:53;;;;;;;403.10;385.30;;;3.60;99.90;;;;;;6201656;23;20433;-83
2022/02/01 05:22:20;;;;;;;377.97;360.10;;;3.60;99.90;;;;;;6190914;23;20468;-83
2022/02/01 05:24:50;;;;;;;361.13;345.77;;;3.70;99.90;;;;;;6191370;23;20413;-83
2022/02/01 05:27:21;;;;;;;345.90;331.10;;;3.70;99.90;;;;;;6192883;23;20413;-84
2022/02/01 05:29:49;;;;;;;354.70;338.70;;;3.60;99.90;;;;;;6193954;23;20441;-84
2022/02/01 05:32:23;;;;;;;332.57;319.37;;;3.60;99.90;;;;;;6193229;23;20417;-83
2022/02/01 05:34:51;;;;;;;314.67;301.30;;;3.60;99.90;;;;;;6202646;23;20443;-83
2022/02/01 05:37:18;;;;;;;271.00;260.67;;;3.60;99.90;;;;;;6193931;23;20738;-83
2022/02/01 05:39:45;;;;;;;249.13;239.87;;;3.70;99.90;;;;;;6193027;23;20437;-83
2022/02/01 05:42:16;;;;;;;221.13;212.43;;;3.70;99.90;;;;;;6193777;23;20409;-83
2022/02/01 05:44:43;;;;;;;217.10;209.23;;;3.70;99.90;;;;;;6193283;23;20907;-84
2022/02/01 05:47:20;;;;;;;219.63;210.73;;;3.70;99.90;;;;;;6203559;23;20488;-84
2022/02/01 05:50:02;;;;;;;189.27;181.70;;;3.70;99.90;;;;;;6203579;23;20776;-84
2022/02/01 05:52:44;;;;;;;143.00;137.37;;;3.90;99.90;;;;;;6202971;23;20700;-84
2022/02/01 05:55:30;;;;;;;;;;;;;;;;;;;;;
2022/02/01 05:57:59;;;;;;;124.17;119.37;;;3.80;99.90;;;;;;6206007;23;20409;-84
2022/02/01 06:00:31;;;;;;;155.87;149.70;;;3.70;99.90;;;;;;6194510;23;20429;-84
2022/02/01 06:03:02;;;;;;;162.53;155.80;;;3.70;99.90;;;;;;6194525;23;20461;-86
2022/02/01 06:05:29;;;;;;;174.00;167.27;;;3.70;99.90;;;;;;6194223;23;20403;-84
2022/02/01 06:07:56;;;;;;;210.67;202.03;;;3.70;99.90;;;;;;6195781;23;20813;-83
2022/02/01 06:10:40;;;;;;;235.70;227.30;;;3.70;99.90;;;;;;6194125;23;20441;-82
2022/02/01 06:13:07;;;;;;;244.03;234.50;;;3.70;99.90;;;;;;6195323;23;20871;-83
2022/02/01 06:15:37;;;;;;;240.30;230.83;;;3.50;99.90;;;;;;6195541;23;20409;-82
2022/02/01 06:18:05;;;;;;;236.90;228.70;;;3.70;99.90;;;;;;6204614;23;20473;-84
2022/02/01 06:20:33;;;;;;;249.73;240.03;;;3.60;99.90;;;;;;6194318;23;20511;-84
2022/02/01 06:23:00;;;;;;;254.23;244.87;;;3.50;99.90;;;;;;6192906;23;20420;-84
2022/02/01 06:25:47;;;;;;;255.43;245.43;;;3.50;99.90;;;;;;6193174;23;20405;-82
2022/02/01 06:28:14;;;;;;;288.17;277.17;;;3.40;99.90;;;;;;6193640;23;20401;-83
2022/02/01 06:30:41;;;;;;;301.80;290.07;;;3.40;99.90;;;;;;6194933;23;20456;-83
2022/02/01 06:33:10;;;;;;;296.87;285.67;;;3.40;99.90;;;;;;6194135;23;20887;-82
2022/02/01 06:35:37;;;;;;;310.00;297.70;;;3.60;99.90;;;;;;6193203;23;20416;-83
2022/02/01 06:38:04;;;;;;;302.77;291.20;;;3.60;99.90;;;;;;6194418;23;20423;-83
2022/02/01 06:40:35;;;;;;;288.80;277.90;;;3.70;99.90;;;;;;6192708;23;20429;-84
2022/02/01 06:43:03;;;;;;;285.03;274.53;;;3.70;99.90;;;;;;6203591;23;20409;-83
2022/02/01 06:45:30;;;;;;;288.20;276.40;;;3.80;99.90;;;;;;6195107;23;20437;-83
2022/02/01 06:47:58;;;;;;;278.33;268.20;;;3.90;99.90;;;;;;6195078;23;20907;-84
2022/02/01 06:50:29;;;;;;;268.50;258.20;;;3.80;99.90;;;;;;6193681;23;20445;-83
2022/02/01 06:52:57;;;;;;;291.10;278.17;;;3.90;99.90;;;;;;6194618;23;20402;-83
2022/02/01 06:55:34;;;;;;;279.10;269.00;;;3.90;99.90;;;;;;6192554;23;20413;-84
2022/02/01 06:58:02;;;;;;;275.47;265.63;;;3.90;99.90;;;;;;6193934;23;20397;-83
2022/02/01 07:00:29;;;;;;;302.70;289.53;;;3.90;99.90;;;;;;6195507;23;20504;-84
2022/02/01 07:02:55;;;;;;;286.57;276.03;;;4.00;99.90;;;;;;6197382;23;20413;-83
2022/02/01 07:05:22;;;;;;;308.30;296.13;;;4.00;99.90;;;;;;6202995;23;20511;-83
2022/02/01 07:07:51;;;;;;;329.40;316.60;;;3.90;99.90;;;;;;6193273;23;20740;-84
2022/02/01 07:10:18;;;;;;;337.37;323.67;;;3.90;99.90;;;;;;6193579;23;20444;-83
2022/02/01 07:12:45;;;;;;;335.90;322.50;;;4.00;99.90;;;;;;6204230;23;20405;-84
2022/02/01 07:15:13;;;;;;;335.13;321.90;;;4.00;99.90;;;;;;6192562;23;20413;-84
2022/02/01 07:17:52;;;;;;;333.73;320.07;;;4.00;99.90;;;;;;6201571;23;20507;-84
2022/02/01 07:20:37;;;;;;;343.63;329.67;;;4.10;99.90;;;;;;6193259;23;20773;-84
2022/02/01 07:23:32;;;;;;;339.67;325.03;;;4.10;99.90;;;;;;6193109;23;20819;-84
2022/02/01 07:26:15;;;;;;;344.43;330.07;;;4.10;99.90;;;;;;6015717;23;20426;-84
2022/02/01 07:28:52;;;;;;;349.13;334.27;;;4.20;99.90;;;;;;6189975;23;20408;-84
2022/02/01 07:31:26;;;;;;;338.07;324.20;;;4.30;99.90;;;;;;6193778;23;20496;-82
2022/02/01 07:34:03;;;;;;;358.20;343.20;;;4.30;99.90;;;;;;6202926;23;20408;-83
2022/02/01 07:36:50;;;;;;;358.20;343.77;;;4.20;99.90;;;;;;6191735;23;20424;-84
2022/02/01 07:39:55;;;;;;;;;;;;;;;;;;;;;
2022/02/01 07:42:31;;;;;;;370.33;355.13;;;4.40;99.90;;;;;;6167462;23;20440;-84
2022/02/01 07:45:02;;;;;;;364.00;349.30;;;4.40;99.90;;;;;;6195123;23;20400;-84
2022/02/01 07:48:00;;;;;;;382.87;366.83;;;4.40;99.90;;;;;;6194786;23;20705;-84
2022/02/01 07:50:28;;;;;;;356.03;341.33;;;4.40;99.90;;;;;;6194233;23;20440;-83
2022/02/01 07:53:01;;;;;;;369.10;352.70;;;4.50;99.90;;;;;;6194640;23;20481;-84
2022/02/01 07:55:36;;;;;;;372.90;357.37;;;4.50;99.90;;;;;;6194801;23;20397;-83
2022/02/01 07:58:11;;;;;;;368.77;354.17;;;4.40;99.90;;;;;;6204916;23;20419;-84
2022/02/01 08:01:04;;;;;;;382.50;366.03;;;4.80;99.90;;;;;;6204854;23;20428;-83
2022/02/01 08:03:33;;;;;;;380.33;362.67;;;4.70;99.90;;;;;;6183648;23;20421;-83
2022/02/01 08:06:18;;;;;;;;;;;;;;;;;;;;;
2022/02/01 08:09:14;;;;;;;381.03;364.67;;;4.80;99.90;;;;;;6204490;23;20401;-83
2022/02/01 08:11:50;;;;;;;396.20;376.73;;;4.70;99.90;;;;;;6194596;23;20389;-84
2022/02/01 08:17:25;;;;;;;477.43;453.83;;;4.60;99.90;;;;;;6123950;23;20750;-83
2022/02/01 08:20:02;;;;;;;526.10;497.60;;;4.60;99.90;;;;;;6194659;23;20440;-83
2022/02/01 08:22:37;;;;;;;532.90;504.23;;;4.60;99.90;;;;;;6193756;23;20389;-84
2022/02/01 08:25:10;;;;;;;549.53;519.17;;;4.60;99.90;;;;;;6194438;23;20427;-83
2022/02/01 08:27:39;;;;;;;582.93;548.70;;;4.70;99.90;;;;;;6195361;23;20402;-83
2022/02/01 08:30:09;;;;;;;599.53;563.57;;;4.60;99.90;;;;;;6193333;23;20445;-83
2022/02/01 08:32:39;;;;;;;613.60;575.97;;;4.70;99.90;;;;;;6195208;23;20397;-83
2022/02/01 08:35:09;;;;;;;620.00;581.97;;;4.70;99.90;;;;;;6194448;23;20420;-84
2022/02/01 08:37:50;;;;;;;;;;;;;;;;;;;;;
2022/02/01 08:40:51;;;;;;;625.17;587.87;;;4.60;99.90;;;;;;6201106;23;20436;-83
2022/02/01 08:43:47;;;;;;;663.83;619.73;;;4.70;99.90;;;;;;6192167;23;20762;-84
2022/02/01 08:46:37;;;;;;;681.77;634.30;;;4.70;99.90;;;;;;6195601;23;20393;-84
2022/02/01 08:49:36;;;;;;;703.87;655.57;;;4.70;99.90;;;;;;6195137;23;20477;-84
2022/02/01 08:53:10;;;;;;;719.60;667.20;;;4.70;99.90;;;;;;6017550;23;20561;-84
2022/02/01 08:57:20;;;;;;;721.63;668.33;;;4.70;99.90;;;;;;6186880;23;20431;-84
2022/02/01 09:08:57;;;;;;;704.33;641.97;;;4.70;99.90;;;;;;6117817;23;20416;-84
2022/02/01 09:11:26;;;;;;;711.40;648.10;;;4.70;99.90;;;;;;6146887;23;20504;-83
2022/02/01 09:13:53;;;;;;;710.50;647.97;;;4.90;99.90;;;;;;6194574;23;20759;-83
2022/02/01 09:16:21;;;;;;;716.30;653.53;;;5.00;99.90;;;;;;6195702;23;20444;-83
2022/02/01 09:18:48;;;;;;;703.50;643.40;;;5.10;99.90;;;;;;6194923;23;20503;-83
2022/02/01 09:21:18;;;;;;;694.17;635.87;;;5.10;99.90;;;;;;6194773;23;20433;-83
2022/02/01 09:23:45;;;;;;;681.17;625.20;;;5.00;99.90;;;;;;6194283;23;20477;-83
2022/02/01 09:26:12;;;;;;;686.87;631.37;;;5.00;99.90;;;;;;6195331;23;20456;-83
2022/02/01 09:28:40;;;;;;;688.17;631.47;;;5.00;99.90;;;;;;6192940;23;20416;-83
2022/02/01 09:31:09;;;;;;;699.80;639.83;;;5.00;99.90;;;;;;6192684;23;20441;-82
2022/02/01 09:33:36;;;;;;;698.73;638.60;;;5.00;99.90;;;;;;6193111;23;20417;-82
2022/02/01 09:36:13;;;;;;;696.10;637.10;;;5.10;99.90;;;;;;6191241;23;20417;-83
2022/02/01 09:38:39;;;;;;;696.87;638.07;;;5.10;99.90;;;;;;6201495;23;20389;-83
2022/02/01 09:41:06;;;;;;;697.23;639.90;;;5.00;99.90;;;;;;6194737;23;20429;-83
2022/02/01 09:43:33;;;;;;;699.60;641.57;;;5.00;99.90;;;;;;6193337;23;20420;-83
2022/02/01 09:46:02;;;;;;;700.20;641.30;;;5.00;99.90;;;;;;6194315;23;20412;-83
2022/02/01 09:48:29;;;;;;;716.53;655.67;;;5.00;99.90;;;;;;6194087;23;20415;-83
2022/02/01 09:50:55;;;;;;;709.43;650.03;;;5.10;99.90;;;;;;6194047;23;20455;-83
2022/02/01 09:53:22;;;;;;;709.20;647.67;;;5.00;99.90;;;;;;6194370;23;20409;-83
2022/02/01 09:55:49;;;;;;;702.30;641.10;;;5.10;99.90;;;;;;6193910;23;20413;-83
2022/02/01 09:58:17;;;;;;;704.20;641.30;;;5.20;99.90;;;;;;6194519;23;20417;-84
2022/02/01 10:00:46;;;;;;;712.40;649.60;;;5.40;99.90;;;;;;6195471;23;20452;-83
2022/02/01 10:03:19;;;;;;;726.07;663.47;;;5.30;99.90;;;;;;6194446;23;20887;-83
2022/02/01 10:06:04;;;;;;;724.93;662.57;;;5.50;99.90;;;;;;6194205;23;20452;-83
2022/02/01 10:08:31;;;;;;;716.93;656.93;;;5.60;99.90;;;;;;6193963;23;20897;-84
2022/02/01 10:10:58;;;;;;;721.20;663.10;;;5.60;99.90;;;;;;6194576;23;20894;-84
2022/02/01 10:13:25;;;;;;;713.23;653.50;;;5.70;99.90;;;;;;6193086;23;20817;-83
2022/02/01 10:15:57;;;;;;;710.87;652.20;;;5.70;99.90;;;;;;6194281;23;20457;-83
2022/02/01 10:18:30;;;;;;;705.90;648.40;;;5.70;99.90;;;;;;6193261;23;20401;-83
2022/02/01 10:21:05;;;;;;;708.23;649.13;;;5.70;99.90;;;;;;6194817;23;20436;-84
2022/02/01 10:23:35;;;;;;;717.67;659.03;;;5.70;99.90;;;;;;6193679;23;20407;-83
2022/02/01 10:26:04;;;;;;;714.37;656.30;;;5.70;99.90;;;;;;6194069;23;20444;-84
2022/02/01 10:28:49;;;;;;;716.37;657.47;;;5.70;99.90;;;;;;6193330;23;20417;-83
2022/02/01 10:31:32;;;;;;;720.10;659.80;;;5.70;99.90;;;;;;6196166;23;20444;-83
2022/02/01 10:34:41;;;;;;;734.08;672.13;;;5.80;99.90;;;;;;6202782;23;20881;-85
2022/02/01 10:37:18;;;;;;;719.30;659.20;;;5.80;99.90;;;;;;6193616;23;20164;-85
2022/02/01 10:39:47;;;;;;;715.90;656.83;;;5.80;99.90;;;;;;6193048;23;20456;-85
2022/02/01 10:42:16;;;;;;;716.63;657.43;;;5.90;99.90;;;;;;6193560;23;20433;-85
2022/02/01 10:44:44;;;;;;;711.90;653.13;;;5.90;99.90;;;;;;6193690;23;20411;-85
2022/02/01 10:47:12;;;;;;;717.80;657.60;;;6.10;99.90;;;;;;6193750;23;20436;-85
2022/02/01 10:49:41;;;;;;;713.23;656.57;;;6.10;99.90;;;;;;6194044;23;20761;-85
2022/02/01 10:52:10;;;;;;;717.83;658.87;;;6.20;99.90;;;;;;6193810;23;20436;-85
2022/02/01 10:54:43;;;;;;;715.60;657.03;;;6.20;99.90;;;;;;6193847;23;20436;-85
2022/02/01 10:57:14;;;;;;;724.07;665.10;;;6.20;99.90;;;;;;6194089;23;20440;-85
2022/02/01 10:59:40;;;;;;;730.80;671.00;;;6.40;99.90;;;;;;6193259;23;20429;-85
2022/02/01 11:02:08;;;;;;;734.27;678.47;;;6.40;99.90;;;;;;6194322;23;20498;-84
2022/02/01 11:04:37;;;;;;;737.20;682.20;;;6.50;99.90;;;;;;6194166;23;20487;-85
2022/02/01 11:07:07;;;;;;;740.50;689.60;;;6.40;99.90;;;;;;6194726;23;20405;-84
2022/02/01 11:09:37;;;;;;;742.53;691.93;;;6.40;99.90;;;;;;6195042;23;20429;-85
2022/02/01 11:12:09;;;;;;;741.70;690.13;;;6.40;99.90;;;;;;6194530;23;20479;-84
2022/02/01 11:14:41;;;;;;;737.73;687.03;;;6.40;99.90;;;;;;6196891;23;20401;-85
2022/02/01 11:17:10;;;;;;;735.70;687.30;;;6.50;99.90;;;;;;6196095;23;20747;-85
2022/02/01 11:19:55;;;;;;;744.60;695.20;;;6.40;99.90;;;;;;6196705;23;20975;-85
2022/02/01 11:22:27;;;;;;;737.77;685.70;;;6.30;99.90;;;;;;6196006;23;20397;-85
2022/02/01 11:25:10;;;;;;;731.87;678.80;;;6.30;99.90;;;;;;6196661;23;20400;-85
2022/02/01 11:27:58;;;;;;;726.23;670.63;;;6.40;99.90;;;;;;6197158;23;20393;-85
2022/02/01 11:30:34;;;;;;;727.27;669.80;;;6.30;99.90;;;;;;6205753;23;20437;-84
2022/02/01 11:33:01;;;;;;;723.53;666.23;;;6.40;99.90;;;;;;6195199;23;20393;-84
2022/02/01 11:35:29;;;;;;;727.17;667.73;;;6.40;99.90;;;;;;6205223;23;20420;-84
2022/02/01 11:38:07;;;;;;;720.77;663.27;;;6.40;99.90;;;;;;6195479;23;20436;-84
2022/02/01 11:40:36;;;;;;;723.77;662.40;;;6.30;99.90;;;;;;6195565;23;20436;-84
2022/02/01 11:43:07;;;;;;;715.50;655.73;;;6.30;99.90;;;;;;6195599;23;20435;-84
2022/02/01 11:45:38;;;;;;;711.30;649.40;;;6.40;99.90;;;;;;6196214;23;20397;-84
2022/02/01 11:48:18;;;;;;;700.00;640.73;;;6.40;99.90;;;;;;6194967;23;20397;-83
2022/02/01 11:50:46;;;;;;;706.87;644.83;;;6.40;99.90;;;;;;6194712;23;20441;-83
2022/02/01 11:53:22;;;;;;;709.70;648.00;;;6.50;99.90;;;;;;6195041;23;20417;-84
2022/02/01 11:55:49;;;;;;;703.03;641.83;;;6.40;99.90;;;;;;6196147;23;20403;-85
2022/02/01 11:58:27;;;;;;;694.07;635.53;;;6.50;99.90;;;;;;6195622;23;20441;-84
2022/02/01 12:00:54;;;;;;;692.03;631.30;;;6.40;99.90;;;;;;6195010;23;20511;-84
2022/02/01 12:03:27;;;;;;;694.70;632.80;;;6.50;99.90;;;;;;6195498;23;20420;-84
2022/02/01 12:05:58;;;;;;;683.67;623.57;;;6.60;99.90;;;;;;6194642;23;20897;-83
2022/02/01 12:08:31;;;;;;;675.97;618.20;;;6.60;99.90;;;;;;6195470;23;20397;-83
2022/02/01 12:11:01;;;;;;;688.47;628.07;;;6.60;99.90;;;;;;6205127;23;20782;-84
2022/02/01 12:13:30;;;;;;;696.53;636.13;;;6.50;99.90;;;;;;6196089;23;20413;-84
2022/02/01 12:16:00;;;;;;;698.73;639.07;;;6.60;99.90;;;;;;6194762;23;20419;-84
2022/02/01 12:18:44;;;;;;;705.40;642.77;;;6.50;99.90;;;;;;6194397;23;20413;-84
2022/02/01 12:21:21;;;;;;;693.67;632.77;;;6.60;99.90;;;;;;6194090;23;20453;-83
2022/02/01 12:23:51;;;;;;;683.23;624.70;;;6.70;99.90;;;;;;6194936;23;20393;-84
2022/02/01 12:26:20;;;;;;;666.00;607.33;;;6.60;99.90;;;;;;6195062;23;20417;-84
2022/02/01 12:28:47;;;;;;;652.10;597.67;;;6.70;99.90;;;;;;6193787;23;20467;-84
2022/02/01 12:31:15;;;;;;;674.47;616.47;;;6.60;99.90;;;;;;6194707;23;20448;-84
2022/02/01 12:33:44;;;;;;;685.53;624.37;;;6.70;99.90;;;;;;6194389;23;20413;-84
2022/02/01 12:36:12;;;;;;;684.40;624.30;;;6.80;99.90;;;;;;6194103;23;20424;-84
2022/02/01 12:38:40;;;;;;;689.70;628.67;;;6.80;99.90;;;;;;6193583;23;20420;-83
2022/02/01 12:41:15;;;;;;;681.03;621.07;;;6.80;99.90;;;;;;6194444;23;20439;-84
2022/02/01 12:45:45;;;;;;;688.60;627.57;;;6.70;99.90;;;;;;6192898;23;20487;-83
2022/02/01 12:46:46;;;;;;;677.93;617.90;;;6.80;99.90;;;;;;6192656;23;20433;-84
2022/02/01 12:49:13;;;;;;;679.07;618.80;;;6.80;99.90;;;;;;6192824;23;20401;-83
2022/02/01 12:51:40;;;;;;;681.00;621.10;;;6.90;99.90;;;;;;6192373;23;20500;-81
2022/02/01 12:54:07;;;;;;;681.23;621.90;;;6.90;99.90;;;;;;6195707;23;20413;-83
2022/02/01 12:56:37;;;;;;;690.27;629.67;;;6.90;99.90;;;;;;6196326;23;20413;-83
2022/02/01 12:59:04;;;;;;;683.07;624.97;;;6.90;99.90;;;;;;6197490;23;20413;-83
2022/02/01 13:01:32;;;;;;;713.40;650.80;;;7.00;99.90;;;;;;6198417;23;20504;-83
2022/02/01 13:03:59;;;;;;;709.70;647.80;;;7.20;99.90;;;;;;6195963;23;20420;-83
2022/02/01 13:06:27;;;;;;;692.67;632.87;;;7.10;99.90;;;;;;6195902;23;20413;-83
2022/02/01 13:14:47;;;;;;;700.73;640.40;;;7.00;99.90;;;;;;6106005;23;20459;-83
2022/02/01 13:17:39;;;;;;;690.43;632.40;;;7.10;99.90;;;;;;6106288;23;20424;-83
2022/02/01 13:20:17;;;;;;;686.60;627.83;;;7.10;99.90;;;;;;6147198;23;20476;-84
2022/02/01 13:23:01;;;;;;;689.60;630.80;;;7.00;99.90;;;;;;6196554;23;20389;-83
2022/02/01 13:25:33;;;;;;;704.30;642.13;;;7.10;99.90;;;;;;6196813;23;20460;-83
2022/02/01 13:28:04;;;;;;;704.97;642.70;;;7.20;99.90;;;;;;6197072;23;20493;-84
2022/02/01 13:30:34;;;;;;;697.20;636.23;;;7.00;99.90;;;;;;6196065;23;20429;-83
2022/02/01 13:33:09;;;;;;;694.80;633.90;;;7.10;99.90;;;;;;6196820;23;20421;-84
2022/02/01 13:35:50;;;;;;;687.23;626.17;;;7.10;99.90;;;;;;6196847;23;20484;-83
2022/02/01 13:38:17;;;;;;;689.63;628.87;;;7.20;99.90;;;;;;6195378;23;20460;-83
2022/02/01 13:40:44;;;;;;;695.93;634.73;;;7.30;99.90;;;;;;6197208;23;20433;-83
2022/02/01 13:43:19;;;;;;;696.07;634.20;;;7.20;99.90;;;;;;6199748;23;20419;-83
2022/02/01 13:45:48;;;;;;;693.93;632.77;;;7.30;99.90;;;;;;6199435;23;20393;-83
2022/02/01 13:48:20;;;;;;;693.57;633.07;;;7.20;99.90;;;;;;6198151;23;20448;-82
2022/02/01 13:50:48;;;;;;;701.37;639.67;;;7.30;99.90;;;;;;6199222;23;20439;-82
2022/02/01 13:53:17;;;;;;;708.13;644.80;;;7.20;99.90;;;;;;6197614;23;20413;-83
2022/02/01 13:55:44;;;;;;;727.03;661.80;;;7.20;99.90;;;;;;6198637;23;20415;-83
2022/02/01 13:58:14;;;;;;;723.87;659.93;;;7.20;99.90;;;;;;6198448;23;20863;-82
2022/02/01 14:00:44;;;;;;;742.97;676.57;;;7.30;99.90;;;;;;6198712;23;20429;-83
2022/02/01 14:03:21;;;;;;;725.23;658.87;;;7.30;99.90;;;;;;6198465;23;20412;-83
2022/02/01 14:06:02;;;;;;;784.10;717.53;;;7.30;99.90;;;;;;6198854;23;20397;-83
2022/02/01 14:08:38;;;;;;;737.70;672.67;;;7.30;99.90;;;;;;6200151;23;20401;-82
2022/02/01 14:11:43;;;;;;;735.47;669.27;;;7.30;99.90;;;;;;6197713;23;20451;-82
2022/02/01 14:28:12;;;;;;;734.37;666.97;;;7.40;99.90;;;;;;6195582;23;20452;-83
2022/02/01 14:33:43;;;;;;;749.13;682.33;;;7.40;99.90;;;;;;6196607;23;20416;-83
2022/02/01 14:36:11;;;;;;;769.60;702.60;;;7.50;99.90;;;;;;6194756;23;20472;-82
2022/02/01 14:39:03;;;;;;;778.67;710.40;;;7.50;99.90;;;;;;6194860;23;20499;-82
2022/02/01 14:47:15;;;;;;;770.03;698.80;;;7.60;99.90;;;;;;6195115;23;20933;-83
2022/02/01 14:49:43;;;;;;;763.60;693.30;;;7.60;99.90;;;;;;6199540;23;20488;-83
2022/02/01 14:52:10;;;;;;;775.97;705.00;;;7.70;99.90;;;;;;6199241;23;20433;-82
2022/02/01 14:54:42;;;;;;;784.10;712.63;;;7.60;99.90;;;;;;6200610;23;20412;-83
2022/02/01 15:11:24;;;;;;;803.03;733.37;;;7.80;99.90;;;;;;6195595;23;20462;-83
2022/02/01 15:13:56;;;;;;;822.50;753.37;;;7.80;99.90;;;;;;6203177;23;20409;-83
2022/02/01 15:16:25;;;;;;;799.73;731.83;;;8.00;99.90;;;;;;6205682;23;20435;-84
2022/02/01 15:18:57;;;;;;;793.63;726.77;;;8.00;99.90;;;;;;6200001;23;20444;-82
2022/02/01 15:21:26;;;;;;;815.53;748.70;;;8.10;99.90;;;;;;6196660;23;20496;-84
2022/02/01 15:23:53;;;;;;;796.40;732.40;;;8.10;99.90;;;;;;6194837;23;20420;-83
2022/02/01 15:26:25;;;;;;;798.17;734.87;;;8.10;99.90;;;;;;6195530;23;20484;-84
2022/02/01 15:28:53;;;;;;;780.97;719.37;;;8.10;99.90;;;;;;6196876;23;20733;-83
2022/02/01 15:31:19;;;;;;;787.07;725.07;;;8.10;99.90;;;;;;6197016;23;20500;-82
2022/02/01 15:33:46;;;;;;;793.47;730.97;;;8.20;99.90;;;;;;6207244;23;20416;-84
2022/02/01 15:36:14;;;;;;;791.47;729.50;;;8.10;99.90;;;;;;6190675;23;20420;-84
2022/02/01 15:45:55;;;;;;;774.67;713.67;;;8.20;99.90;;;;;;6192692;23;20441;-84
2022/02/01 15:59:29;;;;;;;717.63;662.13;;;8.30;99.90;;;;;;6199683;23;20425;-85
2022/02/01 16:02:12;;;;;;;717.63;661.53;;;8.40;99.90;;;;;;6189910;23;20401;-83
2022/02/01 16:04:53;;;;;;;706.60;650.83;;;8.40;99.90;;;;;;6200318;23;20417;-84
2022/02/01 16:07:28;;;;;;;679.20;626.03;;;8.40;99.90;;;;;;6191259;23;20401;-84
2022/02/01 16:10:24;;;;;;;676.53;623.33;;;8.40;99.90;;;;;;6190143;23;20478;-85
2022/02/01 16:13:02;;;;;;;672.67;619.27;;;8.40;99.90;;;;;;6185778;23;20433;-84
2022/02/01 16:18:27;;;;;;;675.67;621.20;;;8.50;99.90;;;;;;6187870;23;20448;-85
2022/02/01 16:21:07;;;;;;;681.57;626.90;;;8.50;99.90;;;;;;6200454;23;20509;-84
2022/02/01 16:26:48;;;;;;;691.50;633.67;;;8.50;99.90;;;;;;6144257;23;20793;-86
2022/02/01 16:29:28;;;;;;;710.00;652.00;;;8.50;99.90;;;;;;6200075;23;20408;-85
2022/02/01 16:35:22;;;;;;;;;;;;;;;;;;;;;
2022/02/01 16:38:26;;;;;;;737.87;675.97;;;8.60;99.90;;;;;;6200910;23;20410;-85
2022/02/01 16:41:01;;;;;;;733.37;672.17;;;8.60;99.90;;;;;;6200603;23;20429;-85
2022/02/01 16:43:36;;;;;;;731.23;670.60;;;8.60;99.90;;;;;;6201916;23;20471;-85
2022/02/01 16:46:07;;;;;;;729.00;669.10;;;8.60;99.90;;;;;;6201171;23;20444;-85
2022/02/01 16:48:37;;;;;;;736.17;675.67;;;8.70;99.90;;;;;;6199793;23;20419;-83
2022/02/01 16:51:18;;;;;;;730.00;669.90;;;8.60;99.90;;;;;;6191046;23;20846;-86